Time;durP1;ratioP1;P1;durP2;ratioP2;P2;SDS_P1;SDS_P2;PMS_P1;PMS_P2;Temp;Humidity;BMP_temperature;BMP_pressure;BME280_temperature;BME280_humidity;BME280_pressure;Samples;Min_cycle;Max_cycle;Signal;HPM_P1;HPM_P2
2022/09/04 00:01:08;;;;;;;28.80;14.75;;;;;;;13.17;100.00;99257.38;5048617;28;20020;-54
2022/09/04 00:03:46;;;;;;;22.75;13.50;;;;;;;13.17;100.00;99265.44;5056689;28;20229;-55
2022/09/04 00:06:14;;;;;;;28.60;15.02;;;;;;;13.08;100.00;99261.63;5045803;28;20049;-55
2022/09/04 00:08:53;;;;;;;26.67;15.35;;;;;;;13.14;100.00;99262.47;5049897;28;20036;-55
2022/09/04 00:11:33;;;;;;;23.33;13.30;;;;;;;13.07;100.00;99257.31;5049902;28;20040;-55
2022/09/04 00:14:00;;;;;;;;;;;;;;;13.06;100.00;99266.47;5055266;28;20490;-53
2022/09/04 00:16:43;;;;;;;20.23;11.60;;;;;;;13.15;100.00;99259.53;5050180;28;20037;-53
2022/09/04 00:19:12;;;;;;;22.98;12.57;;;;;;;13.20;100.00;99266.00;5050238;28;20085;-55
2022/09/04 00:21:49;;;;;;;19.50;11.13;;;;;;;13.21;100.00;99268.47;5049798;28;20111;-52
2022/09/04 00:24:16;;;;;;;18.20;11.18;;;;;;;13.34;100.00;99264.53;5049963;28;20526;-54
2022/09/04 00:27:10;;;;;;;26.02;13.93;;;;;;;13.26;100.00;99263.09;5031534;28;20041;-53
2022/09/04 00:29:54;;;;;;;24.27;13.65;;;;;;;13.19;100.00;99267.09;5063318;28;20024;-56
2022/09/04 00:32:36;;;;;;;24.27;14.10;;;;;;;13.11;100.00;99269.19;5054258;28;20037;-52
2022/09/04 00:35:14;;;;;;;26.67;14.65;;;;;;;12.99;100.00;99265.88;5049655;28;20475;-50
2022/09/04 00:38:28;;;;;;;23.17;14.77;;;;;;;12.89;100.00;99266.59;5032474;28;20146;-52
2022/09/04 00:41:32;;;;;;;28.55;14.25;;;;;;;12.85;100.00;99273.53;5051145;28;20315;-53
2022/09/04 00:44:16;;;;;;;189.10;16.20;;;;;;;12.82;100.00;99274.06;5034591;28;20380;-54
2022/09/04 00:46:51;;;;;;;116.20;16.45;;;;;;;12.85;100.00;99280.81;5049535;28;20029;-55
2022/09/04 00:49:22;;;;;;;447.27;20.60;;;;;;;12.83;100.00;99278.38;5052820;28;20033;-52
2022/09/04 00:52:14;;;;;;;29.85;15.43;;;;;;;12.77;100.00;99278.59;5047816;28;20067;-54
2022/09/04 00:54:48;;;;;;;28.13;15.57;;;;;;;12.71;100.00;99286.63;5048612;28;20025;-55
2022/09/04 00:57:39;;;;;;;116.75;17.33;;;;;;;12.79;100.00;99292.59;5049394;28;20060;-53
2022/09/04 01:00:17;;;;;;;30.42;16.23;;;;;;;12.63;100.00;99283.56;5053026;28;20036;-55
2022/09/04 01:03:14;;;;;;;26.25;15.20;;;;;;;12.73;100.00;99284.50;5048831;28;20162;-55
2022/09/04 01:06:02;;;;;;;28.30;15.65;;;;;;;12.61;100.00;99286.53;5048974;28;20048;-52
2022/09/04 01:08:54;;;;;;;26.50;14.70;;;;;;;12.68;100.00;99287.13;5047374;28;20925;-54
2022/09/04 01:11:19;;;;;;;;;;;;;;;12.95;100.00;99280.88;5054881;28;20182;-51
2022/09/04 01:14:12;;;;;;;26.50;14.90;;;;;;;12.85;100.00;99288.88;5048335;28;19916;-54
2022/09/04 01:16:50;;;;;;;25.92;15.40;;;;;;;12.74;100.00;99296.06;5054645;28;20162;-54
2022/09/04 01:19:55;;;;;;;27.05;15.23;;;;;;;12.68;100.00;99291.66;5047701;28;20040;-54
2022/09/04 01:22:29;;;;;;;29.30;16.08;;;;;;;12.64;100.00;99296.75;5047648;28;20043;-54
2022/09/04 01:25:33;;;;;;;31.20;16.45;;;;;;;12.58;100.00;99296.97;5055642;28;20434;-54
2022/09/04 01:28:03;;;;;;;29.23;15.55;;;;;;;12.63;100.00;99295.16;5023700;28;20140;-54
2022/09/04 01:30:36;;;;;;;28.40;16.02;;;;;;;12.61;100.00;99304.53;5024145;28;20033;-53
2022/09/04 01:33:26;;;;;;;27.75;16.80;;;;;;;12.68;100.00;99308.66;5016392;28;20041;-52
2022/09/04 01:36:07;;;;;;;26.38;15.18;;;;;;;12.65;100.00;99302.94;5047088;28;20029;-52
2022/09/04 01:38:52;;;;;;;27.73;15.90;;;;;;;12.68;100.00;99297.88;5047256;28;20163;-54
2022/09/04 01:41:32;;;;;;;24.77;14.75;;;;;;;12.66;100.00;99305.38;5047647;28;20033;-52
2022/09/04 01:43:57;;;;;;;29.08;16.02;;;;;;;12.69;100.00;99310.25;5047992;28;20037;-52
2022/09/04 01:46:46;;;;;;;30.50;16.25;;;;;;;12.82;100.00;99302.84;5048731;28;20032;-52
2022/09/04 01:49:23;;;;;;;31.77;16.15;;;;;;;12.81;100.00;99307.41;5047240;28;21955;-53
2022/09/04 01:51:48;;;;;;;28.40;15.82;;;;;;;12.79;100.00;99314.13;5048085;28;20112;-51
2022/09/04 01:54:30;;;;;;;27.10;15.73;;;;;;;12.90;100.00;99313.13;5048691;28;20132;-51
2022/09/04 01:57:23;;;;;;;27.75;16.45;;;;;;;13.06;100.00;99308.72;5048553;28;20419;-53
2022/09/04 02:00:08;;;;;;;27.02;15.60;;;;;;;13.00;100.00;99304.34;5049287;28;20052;-54
2022/09/04 02:02:52;;;;;;;23.25;13.57;;;;;;;13.00;100.00;99310.53;5067439;28;20028;-54
2022/09/04 02:05:27;;;;;;;18.90;11.90;;;;;;;12.96;100.00;99317.50;5051833;28;20051;-54
2022/09/04 02:08:01;;;;;;;20.40;12.32;;;;;;;13.05;100.00;99318.63;5054296;28;20036;-54
2022/09/04 02:11:04;;;;;;;24.88;13.02;;;;;;;13.12;100.00;99321.94;5052438;28;20017;-53
2022/09/04 02:13:55;;;;;;;21.88;12.95;;;;;;;13.26;100.00;99324.22;5051541;28;20051;-53
2022/09/04 02:16:55;;;;;;;21.80;13.15;;;;;;;13.29;100.00;99324.53;5052285;28;20039;-51
2022/09/04 02:19:59;;;;;;;21.63;13.43;;;;;;;13.30;100.00;99328.81;5047162;28;20061;-53
2022/09/04 02:22:51;;;;;;;21.23;12.75;;;;;;;13.23;100.00;99330.91;5050995;28;20033;-54
2022/09/04 02:25:54;;;;;;;18.10;12.07;;;;;;;13.12;100.00;99327.31;5050516;28;20999;-50
2022/09/04 02:28:28;;;;;;;21.05;11.90;;;;;;;13.04;100.00;99333.16;5056893;28;20399;-52
2022/09/04 02:31:28;;;;;;;19.75;12.05;;;;;;;13.15;100.00;99329.50;5058342;28;20017;-56
2022/09/04 02:34:13;;;;;;;20.60;12.40;;;;;;;13.17;100.00;99331.94;5051878;28;20044;-54
2022/09/04 02:36:45;;;;;;;18.08;11.32;;;;;;;13.21;100.00;99332.25;5051253;28;20036;-54
2022/09/04 02:39:35;;;;;;;20.08;11.82;;;;;;;13.27;100.00;99342.00;5051798;28;20483;-53
2022/09/04 02:42:18;;;;;;;19.00;11.13;;;;;;;13.20;100.00;99331.41;5050956;28;20126;-51
2022/09/04 02:45:20;;;;;;;17.25;10.02;;;;;;;13.17;100.00;99331.94;5051584;28;20090;-53
2022/09/04 02:48:14;;;;;;;16.58;10.50;;;;;;;13.17;100.00;99335.44;5051144;28;20041;-51
2022/09/04 02:51:01;;;;;;;14.77;9.73;;;;;;;13.03;100.00;99326.19;5051165;28;20040;-53
2022/09/04 02:53:34;;;;;;;19.95;10.80;;;;;;;12.95;100.00;99332.00;5049908;28;20040;-51
2022/09/04 02:56:07;;;;;;;19.23;11.25;;;;;;;12.88;100.00;99329.53;5033961;28;20029;-52
2022/09/04 02:59:01;;;;;;;22.13;11.65;;;;;;;12.79;100.00;99335.63;5059808;28;20024;-51
2022/09/04 03:01:35;;;;;;;18.70;11.73;;;;;;;12.76;100.00;99336.16;5050133;28;20613;-52
2022/09/04 03:04:15;;;;;;;17.08;10.80;;;;;;;12.73;100.00;99340.16;5051047;28;20047;-53
2022/09/04 03:06:53;;;;;;;18.97;11.63;;;;;;;12.69;100.00;99347.91;5061023;28;20495;-53
2022/09/04 03:09:28;;;;;;;20.63;13.38;;;;;;;12.64;100.00;99339.78;5053811;28;20045;-53
2022/09/04 03:12:02;;;;;;;18.63;11.15;;;;;;;12.62;100.00;99339.22;5064481;28;20017;-54
2022/09/04 03:14:57;;;;;;;15.60;10.57;;;;;;;12.62;100.00;99336.53;5050863;28;20466;-55
2022/09/04 03:17:26;;;;;;;17.92;11.55;;;;;;;12.69;100.00;99347.09;5041917;28;20052;-55
2022/09/04 03:20:07;;;;;;;17.67;11.15;;;;;;;12.68;100.00;99340.06;5051100;28;20086;-52
2022/09/04 03:22:38;;;;;;;18.05;10.93;;;;;;;12.78;100.00;99340.22;5049656;28;20035;-55
2022/09/04 03:25:24;;;;;;;18.02;11.55;;;;;;;12.72;100.00;99342.00;5054119;28;20123;-54
2022/09/04 03:27:49;;;;;;;17.50;11.32;;;;;;;12.71;100.00;99332.34;5058965;28;20079;-53
2022/09/04 03:30:15;;;;;;;18.23;11.13;;;;;;;12.75;100.00;99340.69;5049595;28;20024;-55
2022/09/04 03:33:05;;;;;;;17.45;11.57;;;;;;;12.83;100.00;99339.41;5050844;28;20415;-54
2022/09/04 03:35:58;;;;;;;19.92;11.02;;;;;;;12.77;100.00;99346.63;5051181;28;20063;-52
2022/09/04 03:38:27;;;;;;;20.55;11.13;;;;;;;12.72;100.00;99336.63;5051024;28;20037;-54
2022/09/04 03:41:11;;;;;;;18.45;11.55;;;;;;;12.72;100.00;99343.91;5049210;28;20029;-52
2022/09/04 03:44:13;;;;;;;15.07;10.77;;;;;;;12.81;100.00;99346.94;5049730;28;20025;-52
2022/09/04 03:47:15;;;;;;;18.77;11.48;;;;;;;12.90;100.00;99354.31;5050524;28;20636;-54
2022/09/04 03:49:52;;;;;;;20.52;11.82;;;;;;;12.79;100.00;99351.78;5054107;28;20066;-53
2022/09/04 03:52:36;;;;;;;16.10;10.73;;;;;;;12.77;100.00;99359.28;5060226;28;20024;-53
2022/09/04 03:55:27;;;;;;;17.55;10.98;;;;;;;12.64;100.00;99361.28;5061983;28;20028;-54
2022/09/04 03:58:36;;;;;;;20.00;11.23;;;;;;;12.70;100.00;99349.53;5048895;28;20087;-52
2022/09/04 04:01:06;;;;;;;15.30;9.82;;;;;;;12.88;100.00;99350.22;5053901;28;20020;-54
2022/09/04 04:03:41;;;;;;;16.02;9.45;;;;;;;13.04;100.00;99352.00;5048738;28;20506;-51
2022/09/04 04:06:34;;;;;;;15.40;9.77;;;;;;;12.95;100.00;99357.06;5052823;28;20057;-52
2022/09/04 04:09:21;;;;;;;17.50;9.18;;;;;;;12.68;100.00;99357.03;5049110;28;20061;-55
2022/09/04 04:12:05;;;;;;;17.65;9.50;;;;;;;12.56;100.00;99356.38;5050201;28;20024;-54
2022/09/04 04:14:42;;;;;;;14.23;9.02;;;;;;;12.56;100.00;99360.94;5050595;28;20100;-53
2022/09/04 04:17:39;;;;;;;17.17;10.63;;;;;;;12.44;100.00;99361.88;5055503;28;20024;-55
2022/09/04 04:20:10;;;;;;;15.35;10.52;;;;;;;12.98;100.00;99365.66;5034422;28;20427;-55
2022/09/04 04:23:04;;;;;;;20.25;11.15;;;;;;;13.10;100.00;99367.16;5049589;28;20021;-55
2022/09/04 04:26:03;;;;;;;16.48;10.50;;;;;;;13.15;100.00;99372.56;5049111;28;20387;-55
2022/09/04 04:28:34;;;;;;;17.95;11.77;;;;;;;13.22;100.00;99374.22;5048770;28;20124;-54
2022/09/04 04:31:14;;;;;;;20.15;11.88;;;;;;;13.25;100.00;99368.31;5049025;28;20032;-54
2022/09/04 04:33:48;;;;;;;17.08;11.07;;;;;;;13.21;100.00;99380.69;5048188;28;20483;-52
2022/09/04 04:36:56;;;;;;;17.25;10.93;;;;;;;13.17;100.00;99373.09;5032423;28;20032;-53
2022/09/04 04:39:38;;;;;;;20.25;11.82;;;;;;;13.16;100.00;99373.38;5043496;28;20163;-52
2022/09/04 04:42:32;;;;;;;18.40;11.85;;;;;;;13.13;100.00;99374.69;5052067;28;20056;-55
2022/09/04 04:48:35;;;;;;;20.88;13.25;;;;;;;13.21;100.00;99391.44;5049246;28;20044;-52
2022/09/04 04:51:32;;;;;;;23.25;13.18;;;;;;;13.21;100.00;99392.25;5054189;28;20120;-51
2022/09/04 04:54:16;;;;;;;21.92;12.80;;;;;;;13.28;100.00;99400.13;5049332;28;20040;-54
2022/09/04 04:57:01;;;;;;;21.83;13.02;;;;;;;13.27;100.00;99401.22;5047492;28;20116;-55
2022/09/04 04:59:45;;;;;;;20.80;12.75;;;;;;;13.32;100.00;99409.34;5049052;28;20033;-53
2022/09/04 05:02:15;;;;;;;22.13;11.73;;;;;;;13.23;100.00;99402.75;5047722;28;20025;-53
2022/09/04 05:04:46;;;;;;;21.10;12.35;;;;;;;13.43;100.00;99407.53;5048897;28;20055;-54
2022/09/04 05:07:34;;;;;;;16.83;10.38;;;;;;;14.07;100.00;99406.63;5047740;28;20033;-52
2022/09/04 05:10:21;;;;;;;14.60;9.50;;;;;;;14.68;100.00;99409.66;5048077;28;20767;-54
2022/09/04 05:13:24;;;;;;;13.52;8.30;;;;;;;15.59;94.62;99408.16;5047192;28;20013;-51
2022/09/04 05:16:13;;;;;;;10.60;7.10;;;;;;;15.85;89.35;99421.66;5048679;28;20047;-56
2022/09/04 05:18:54;;;;;;;13.30;7.38;;;;;;;15.94;86.53;99426.25;5048964;28;20062;-54
2022/09/04 05:21:32;;;;;;;12.23;7.70;;;;;;;14.93;92.50;99429.69;5048654;28;20025;-55
2022/09/04 05:24:00;;;;;;;11.00;7.50;;;;;;;14.63;96.47;99436.63;5047659;28;20100;-55
2022/09/04 05:26:52;;;;;;;9.52;7.28;;;;;;;15.20;94.45;99449.19;5047506;28;20183;-54
2022/09/04 05:29:36;;;;;;;11.80;6.63;;;;;;;14.60;96.20;99453.31;5052940;28;20156;-55
2022/09/04 05:32:10;;;;;;;10.65;6.97;;;;;;;14.52;100.00;99459.97;5049328;28;20029;-54
2022/09/04 05:34:57;;;;;;;10.02;6.90;;;;;;;14.21;100.00;99459.03;5048870;28;20356;-55
2022/09/04 05:37:42;;;;;;;10.95;7.38;;;;;;;13.79;100.00;99467.88;5051829;28;20579;-55
2022/09/04 05:40:18;;;;;;;12.27;8.45;;;;;;;13.65;100.00;99456.72;5051149;28;20114;-55
2022/09/04 05:42:56;;;;;;;9.50;7.55;;;;;;;13.92;100.00;99463.94;5060076;28;20620;-55
2022/09/04 05:45:40;;;;;;;11.35;7.45;;;;;;;13.77;100.00;99470.81;5052656;28;20025;-55
2022/09/04 05:48:40;;;;;;;13.55;8.63;;;;;;;13.87;100.00;99470.09;5052379;28;20379;-55
2022/09/04 05:51:12;;;;;;;12.05;7.93;;;;;;;13.88;100.00;99476.28;5005397;28;20030;-55
2022/09/04 05:54:04;;;;;;;14.15;9.35;;;;;;;13.76;100.00;99479.19;5047982;28;20048;-57
2022/09/04 05:57:03;;;;;;;14.52;9.68;;;;;;;13.82;100.00;99480.84;5053221;28;20387;-55
2022/09/04 05:59:31;;;;;;;15.82;9.23;;;;;;;13.76;100.00;99487.28;5052497;28;20104;-52
2022/09/04 06:02:15;;;;;;;20.23;9.80;;;;;;;13.82;100.00;99483.53;5052183;28;20032;-55
2022/09/04 06:05:11;;;;;;;16.08;10.25;;;;;;;13.85;100.00;99484.91;5052459;28;20037;-55
2022/09/04 06:08:04;;;;;;;21.63;10.88;;;;;;;13.93;100.00;99487.13;5061368;28;20664;-54
2022/09/04 06:10:47;;;;;;;20.50;11.55;;;;;;;13.84;100.00;99497.56;5056506;28;20056;-54
2022/09/04 06:13:15;;;;;;;25.95;12.75;;;;;;;13.90;100.00;99498.41;5056670;28;20047;-55
2022/09/04 06:15:47;;;;;;;27.08;12.77;;;;;;;14.15;100.00;99498.63;5051909;28;20029;-51
2022/09/04 06:18:15;;;;;;;31.35;13.80;;;;;;;14.29;100.00;99500.84;5058850;28;20470;-54
2022/09/04 06:20:46;;;;;;;32.05;14.43;;;;;;;14.43;100.00;99510.91;5052741;28;20063;-52
2022/09/04 06:23:24;;;;;;;30.25;14.68;;;;;;;14.80;100.00;99510.06;5051970;28;20104;-54
2022/09/04 06:25:55;;;;;;;30.05;15.23;;;;;;;14.97;100.00;99514.44;5051583;28;20127;-53
2022/09/04 06:29:00;;;;;;;38.60;16.17;;;;;;;15.11;100.00;99510.16;5054738;28;20078;-55
2022/09/04 06:31:25;;;;;;;43.53;14.93;;;;;;;15.22;100.00;99517.22;5050865;28;20045;-55
2022/09/04 06:34:20;;;;;;;27.30;15.10;;;;;;;15.27;100.00;99522.63;5051615;28;20080;-55
2022/09/04 06:36:51;;;;;;;27.58;14.23;;;;;;;15.36;100.00;99527.53;5041407;28;20033;-55
2022/09/04 06:39:44;;;;;;;25.70;14.27;;;;;;;15.76;100.00;99531.41;5067574;28;20439;-54
2022/09/04 06:42:20;;;;;;;38.65;14.10;;;;;;;15.72;100.00;99534.66;5050085;28;20036;-54
2022/09/04 06:44:55;;;;;;;25.17;13.35;;;;;;;15.84;100.00;99536.25;5051792;28;20419;-55
2022/09/04 06:47:52;;;;;;;29.67;15.48;;;;;;;15.62;100.00;99537.28;5049230;28;20427;-56
2022/09/04 06:50:41;;;;;;;26.13;13.82;;;;;;;15.57;100.00;99536.47;5049962;28;20465;-54
2022/09/04 06:53:14;;;;;;;27.08;14.23;;;;;;;15.47;100.00;99535.38;5049847;28;20036;-55
2022/09/04 06:56:08;;;;;;;26.27;14.35;;;;;;;15.81;100.00;99547.63;5051699;28;20408;-54
2022/09/04 06:58:52;;;;;;;24.73;13.75;;;;;;;16.11;100.00;99544.09;5051073;28;20087;-55
2022/09/04 07:01:28;;;;;;;24.65;13.90;;;;;;;15.84;100.00;99555.19;5050874;28;20476;-52
2022/09/04 07:04:16;;;;;;;22.60;12.30;;;;;;;16.42;100.00;99557.59;5051574;28;20122;-55
2022/09/04 07:06:58;;;;;;;21.70;13.18;;;;;;;16.44;100.00;99558.13;5050915;28;20470;-55
2022/09/04 07:09:29;;;;;;;22.30;12.60;;;;;;;16.42;100.00;99561.09;5050835;28;20033;-55
2022/09/04 07:12:05;;;;;;;31.38;13.98;;;;;;;16.42;100.00;99566.50;5016629;28;20041;-55
2022/09/04 07:14:40;;;;;;;23.10;13.18;;;;;;;16.52;100.00;99563.78;5051190;28;20037;-56
2022/09/04 07:17:32;;;;;;;22.20;13.65;;;;;;;16.58;99.88;99559.19;5052076;28;20037;-55
2022/09/04 07:20:35;;;;;;;21.65;12.73;;;;;;;17.71;94.53;99556.84;5048037;28;20045;-56
2022/09/04 07:23:23;;;;;;;19.92;11.27;;;;;;;17.66;91.98;99563.09;5055545;28;20395;-53
2022/09/04 07:26:18;;;;;;;20.08;11.57;;;;;;;17.22;96.90;99573.91;5040970;28;20555;-55
2022/09/04 07:29:06;;;;;;;16.98;10.13;;;;;;;19.61;84.68;99577.44;5049989;28;20814;-55
2022/09/04 07:32:03;;;;;;;16.30;10.13;;;;;;;19.08;83.38;99575.69;5050697;28;20394;-55
2022/09/04 07:34:32;;;;;;;17.48;10.63;;;;;;;19.04;84.03;99584.69;5020590;28;20037;-55
2022/09/04 07:37:35;;;;;;;17.63;10.40;;;;;;;18.46;88.58;99583.66;5049333;28;20113;-55
2022/09/04 07:40:10;;;;;;;17.65;9.55;;;;;;;18.95;87.01;99590.78;5030489;28;20580;-55
2022/09/04 07:42:56;;;;;;;15.65;10.00;;;;;;;17.37;94.83;99592.81;5050379;28;20570;-55
2022/09/04 07:45:37;;;;;;;17.42;10.77;;;;;;;18.69;88.90;99586.69;5050895;28;20132;-59
2022/09/04 07:48:11;;;;;;;15.80;10.15;;;;;;;18.20;90.04;99585.78;5050357;28;20029;-57
2022/09/04 07:50:49;;;;;;;16.55;10.55;;;;;;;18.51;87.42;99588.22;5056195;28;20383;-54
2022/09/04 07:53:43;;;;;;;18.20;11.13;;;;;;;18.37;89.08;99593.53;5050203;28;20108;-55
2022/09/04 07:56:22;;;;;;;15.90;10.40;;;;;;;19.34;86.43;99592.47;5044341;28;20036;-54
2022/09/04 07:59:14;;;;;;;16.95;10.50;;;;;;;18.09;90.90;99601.31;5054386;28;20024;-54
2022/09/04 08:01:52;;;;;;;22.13;12.18;;;;;;;17.96;90.63;99599.25;5048801;28;20040;-54
2022/09/04 08:04:55;;;;;;;18.38;11.32;;;;;;;18.11;92.20;99601.03;5049968;28;20175;-52
2022/09/04 08:07:32;;;;;;;18.05;10.70;;;;;;;18.70;88.66;99602.69;5049761;28;20587;-54
2022/09/04 08:10:22;;;;;;;17.92;11.23;;;;;;;18.94;88.13;99615.50;5049915;28;20071;-54
2022/09/04 08:13:02;;;;;;;18.08;10.32;;;;;;;21.33;77.35;99617.53;5049659;28;20462;-54
2022/09/04 08:15:55;;;;;;;21.00;10.85;;;;;;;20.13;79.92;99619.13;5050143;28;20044;-54
2022/09/04 08:18:51;;;;;;;16.02;10.50;;;;;;;20.87;78.42;99621.97;5048498;28;20044;-55
2022/09/04 08:21:25;;;;;;;18.15;9.38;;;;;;;21.50;74.20;99619.66;5052593;28;20507;-55
2022/09/04 08:24:42;;;;;;;12.68;7.85;;;;;;;22.75;72.08;99626.25;5048497;28;20087;-55
2022/09/04 08:27:50;;;;;;;12.27;8.13;;;;;;;22.11;72.42;99634.66;5027811;28;20044;-56
2022/09/04 08:30:18;;;;;;;14.65;8.73;;;;;;;20.86;77.73;99633.16;5049568;28;20214;-55
2022/09/04 08:33:22;;;;;;;13.25;10.05;;;;;;;20.04;80.17;99635.31;5048030;28;20637;-55
2022/09/04 08:35:54;;;;;;;12.13;8.25;;;;;;;21.02;77.59;99639.16;5004485;28;20060;-55
2022/09/04 08:38:36;;;;;;;10.95;7.90;;;;;;;22.09;74.18;99641.53;5028672;28;20063;-56
2022/09/04 08:41:20;;;;;;;13.45;8.55;;;;;;;23.06;69.60;99643.78;5035812;28;20036;-54
2022/09/04 08:44:10;;;;;;;13.73;6.97;;;;;;;23.29;68.50;99634.41;5048588;28;20048;-54
2022/09/04 08:46:51;;;;;;;;;;;;;;;23.41;67.36;99645.53;5049542;28;20108;-54
2022/09/04 08:49:41;;;;;;;10.27;7.90;;;;;;;23.06;67.75;99649.25;5050425;28;19916;-55
2022/09/04 08:52:29;;;;;;;14.15;7.32;;;;;;;22.91;68.30;99653.97;5049567;28;20487;-55
2022/09/04 08:55:26;;;;;;;10.40;7.38;;;;;;;23.60;67.49;99656.19;5054054;28;20044;-56
2022/09/04 08:58:09;;;;;;;14.20;8.00;;;;;;;22.58;69.50;99653.47;5051772;28;20033;-55
2022/09/04 09:01:03;;;;;;;10.40;7.03;;;;;;;23.76;66.40;99647.53;5049055;28;20039;-55
2022/09/04 09:03:46;;;;;;;9.98;7.00;;;;;;;24.07;65.25;99645.47;5051166;28;20096;-55
2022/09/04 09:06:36;;;;;;;10.00;7.38;;;;;;;24.04;66.68;99643.38;5047428;28;20041;-55
2022/09/04 09:09:07;;;;;;;9.30;6.20;;;;;;;25.01;61.71;99644.84;5048553;28;20111;-53
2022/09/04 09:11:51;;;;;;;9.57;7.35;;;;;;;24.73;62.46;99641.69;5047419;28;20033;-54
2022/09/04 09:14:39;;;;;;;9.57;6.88;;;;;;;23.86;64.36;99642.59;5052392;28;20386;-54
2022/09/04 09:17:15;;;;;;;8.63;6.32;;;;;;;23.77;66.52;99640.97;5048868;28;20127;-56
2022/09/04 09:19:45;;;;;;;11.10;6.18;;;;;;;23.71;65.33;99640.25;5030995;28;20043;-55
2022/09/04 09:22:39;;;;;;;14.60;6.65;;;;;;;22.98;68.69;99643.44;5048612;28;20033;-56
2022/09/04 09:25:18;;;;;;;13.68;8.00;;;;;;;24.33;64.56;99648.19;5015521;28;20371;-56
2022/09/04 09:27:47;;;;;;;12.63;7.38;;;;;;;25.09;63.25;99644.00;5046929;28;20481;-55
2022/09/04 09:30:15;;;;;;;12.30;8.35;;;;;;;25.16;63.16;99644.31;5048518;28;20515;-56
2022/09/04 09:33:19;;;;;;;13.30;8.75;;;;;;;25.81;62.23;99646.84;5047521;28;20107;-56
2022/09/04 09:35:50;;;;;;;13.25;8.43;;;;;;;26.17;60.46;99640.75;5048834;28;20021;-57
2022/09/04 09:38:37;;;;;;;11.88;8.15;;;;;;;26.37;59.28;99644.63;5049886;28;20352;-55
2022/09/04 09:41:02;;;;;;;11.45;7.82;;;;;;;25.83;61.66;99645.38;5052010;28;20029;-57
2022/09/04 09:44:12;;;;;;;14.32;8.27;;;;;;;25.53;61.48;99652.03;5048881;28;20328;-57
2022/09/04 09:47:08;;;;;;;11.55;8.95;;;;;;;24.61;63.12;99642.41;5034267;28;20443;-55
2022/09/04 09:49:55;;;;;;;13.50;8.68;;;;;;;25.46;63.39;99644.34;5034158;28;20051;-55
2022/09/04 09:52:27;;;;;;;12.85;8.70;;;;;;;25.43;62.78;99649.66;5048887;28;20037;-55
2022/09/04 09:55:08;;;;;;;11.18;8.23;;;;;;;25.71;62.06;99648.06;5048567;28;20055;-57
2022/09/04 09:57:52;;;;;;;14.48;8.32;;;;;;;26.12;60.79;99645.66;5048082;28;20068;-55
2022/09/04 10:00:20;;;;;;;12.00;9.25;;;;;;;26.01;60.28;99643.34;5048725;28;20254;-56
2022/09/04 10:03:00;;;;;;;12.80;8.80;;;;;;;26.00;61.57;99644.44;5046947;28;20040;-56
2022/09/04 10:05:51;;;;;;;16.77;10.32;;;;;;;25.04;63.73;99641.44;5048297;28;20095;-55
2022/09/04 10:08:47;;;;;;;13.35;8.68;;;;;;;25.34;63.91;99638.75;5048268;28;20032;-54
2022/09/04 10:11:28;;;;;;;15.20;9.55;;;;;;;25.92;61.53;99637.09;5047030;28;20037;-55
2022/09/04 10:14:12;;;;;;;11.70;7.22;;;;;;;25.95;62.04;99635.63;5047608;28;20060;-55
2022/09/04 10:16:56;;;;;;;11.05;8.35;;;;;;;25.57;62.10;99645.53;5059908;28;20044;-55
2022/09/04 10:19:59;;;;;;;10.98;8.20;;;;;;;25.06;63.04;99632.88;5052955;28;20202;-55
2022/09/04 10:22:51;;;;;;;9.80;7.30;;;;;;;25.18;64.88;99631.06;5057312;28;20056;-56
2022/09/04 10:25:20;;;;;;;9.88;8.13;;;;;;;25.22;63.58;99636.72;5061086;28;20479;-54
2022/09/04 10:27:54;;;;;;;10.32;8.18;;;;;;;26.12;60.62;99624.50;5053896;28;20044;-55
2022/09/04 10:30:20;;;;;;;14.32;7.97;;;;;;;25.26;62.21;99626.69;5052303;28;20107;-55
2022/09/04 10:33:03;;;;;;;21.42;10.85;;;;;;;24.75;64.86;99631.22;5050777;28;20241;-55
2022/09/04 10:35:46;;;;;;;11.90;8.95;;;;;;;23.91;67.58;99622.44;5054289;28;20032;-55
2022/09/04 10:38:24;;;;;;;11.85;8.05;;;;;;;24.59;66.50;99620.00;5052379;28;20107;-55
2022/09/04 10:41:11;;;;;;;10.57;6.65;;;;;;;25.99;61.07;99625.59;5050686;28;20024;-55
2022/09/04 10:44:07;;;;;;;15.55;10.82;;;;;;;24.39;66.04;99623.38;5051505;28;20118;-56
2022/09/04 10:46:58;;;;;;;13.88;8.45;;;;;;;26.14;61.06;99616.72;5050780;28;20021;-55
2022/09/04 10:49:51;;;;;;;10.27;7.38;;;;;;;26.47;60.13;99616.72;5051821;28;20125;-54
2022/09/04 10:52:39;;;;;;;10.35;8.00;;;;;;;23.96;66.02;99614.06;5051463;28;20029;-54
2022/09/04 10:55:15;;;;;;;11.90;6.72;;;;;;;23.66;67.70;99615.78;5051715;28;20102;-55
2022/09/04 10:57:59;;;;;;;9.82;6.45;;;;;;;23.35;67.59;99613.16;5050930;28;20075;-55
2022/09/04 11:01:04;;;;;;;11.50;6.20;;;;;;;24.11;64.96;99620.97;5051365;28;20068;-55
2022/09/04 11:03:32;;;;;;;11.38;7.22;;;;;;;23.95;66.13;99617.94;5029060;28;20040;-55
2022/09/04 11:06:12;;;;;;;12.50;8.30;;;;;;;23.47;69.06;99619.63;5050904;28;20497;-56
2022/09/04 11:08:46;;;;;;;15.68;8.65;;;;;;;22.87;71.43;99622.94;5051014;28;20028;-54
2022/09/04 11:11:30;;;;;;;11.60;8.68;;;;;;;22.41;73.59;99618.66;5051187;28;20324;-55
2022/09/04 11:14:05;;;;;;;10.55;7.93;;;;;;;22.50;73.06;99619.53;5059296;28;20033;-56
2022/09/04 11:16:52;;;;;;;11.57;7.85;;;;;;;22.65;72.38;99612.06;5051264;28;20033;-54
2022/09/04 11:19:55;;;;;;;10.45;7.55;;;;;;;23.23;70.85;99619.25;5055811;28;20513;-55
2022/09/04 11:22:45;;;;;;;17.02;10.48;;;;;;;22.90;72.73;99624.25;5050662;28;20159;-56
2022/09/04 11:25:38;;;;;;;16.73;10.88;;;;;;;22.45;73.66;99630.59;5051084;28;20315;-54
2022/09/04 11:28:19;;;;;;;12.50;8.23;;;;;;;22.22;73.06;99618.88;5050021;28;20037;-56
2022/09/04 11:31:10;;;;;;;11.88;7.03;;;;;;;22.69;71.33;99621.22;5050841;28;20072;-56
2022/09/04 11:34:04;;;;;;;9.60;7.50;;;;;;;22.37;72.61;99621.22;5041057;28;20033;-56
2022/09/04 11:36:34;;;;;;;13.30;8.48;;;;;;;22.47;72.56;99614.72;5050099;28;20553;-56
2022/09/04 11:38:59;;;;;;;11.45;7.30;;;;;;;22.78;70.18;99622.91;5050726;28;20272;-56
2022/09/04 11:41:37;;;;;;;13.55;7.82;;;;;;;22.53;70.59;99624.38;5054007;28;20395;-55
2022/09/04 11:44:13;;;;;;;9.82;6.90;;;;;;;23.14;68.82;99621.13;5050989;28;20213;-55
2022/09/04 11:47:18;;;;;;;8.98;6.68;;;;;;;22.89;69.47;99626.19;5051051;28;20038;-54
2022/09/04 11:50:21;;;;;;;9.63;5.68;;;;;;;23.53;67.07;99623.00;5054266;28;20029;-54
2022/09/04 11:52:54;;;;;;;10.52;6.00;;;;;;;23.15;67.30;99623.56;5050181;28;20028;-54
2022/09/04 11:55:50;;;;;;;8.68;5.30;;;;;;;23.37;66.91;99621.88;5048839;28;20482;-56
2022/09/04 11:58:41;;;;;;;9.00;5.13;;;;;;;23.49;66.82;99627.53;5049799;28;20115;-53
2022/09/04 12:01:26;;;;;;;8.30;5.57;;;;;;;23.64;66.75;99620.81;5048799;28;20064;-54
2022/09/04 12:04:24;;;;;;;8.68;5.55;;;;;;;23.65;65.25;99620.47;5050214;28;20080;-54
2022/09/04 12:06:58;;;;;;;7.75;5.18;;;;;;;24.25;63.47;99610.66;5049607;28;20098;-54
2022/09/04 12:10:05;;;;;;;8.23;5.30;;;;;;;24.43;63.01;99610.63;5048333;28;20035;-54
2022/09/04 12:12:50;;;;;;;7.10;4.95;;;;;;;24.18;63.07;99609.56;5014599;28;20034;-54
2022/09/04 12:15:40;;;;;;;9.20;4.10;;;;;;;24.97;60.02;99610.97;5045717;28;20037;-55
2022/09/04 12:18:32;;;;;;;7.30;3.90;;;;;;;25.05;58.78;99612.88;5054893;28;20036;-55
2022/09/04 12:21:07;;;;;;;9.38;4.00;;;;;;;26.18;55.37;99616.84;5048691;28;20044;-55
2022/09/04 12:23:43;;;;;;;5.18;3.45;;;;;;;26.22;54.38;99609.53;5046862;28;20456;-54
2022/09/04 12:26:16;;;;;;;5.28;3.58;;;;;;;25.82;56.35;99615.50;5047764;28;20032;-54
2022/09/04 12:28:51;;;;;;;5.55;3.40;;;;;;;25.23;58.28;99612.81;5047980;28;20036;-54
2022/09/04 12:31:50;;;;;;;5.78;3.40;;;;;;;26.09;55.85;99605.16;5049359;28;20025;-55
2022/09/04 12:34:36;;;;;;;6.20;3.67;;;;;;;25.49;57.28;99610.75;5034679;28;20488;-55
2022/09/04 12:37:27;;;;;;;4.18;2.20;;;;;;;26.02;50.77;99606.47;5049461;28;20124;-54